MAL623 CYBL-CYVR
Flight info
| Callsign | MAL623 |
|---|---|
| Flight time | 0h 54m |
| Altitude | 7000 |
| Route | VIGSO SOUND6 |
| Aircraft | C208/L-SDGR/S |
Departure
| Time | 2026-05-08 03:07 |
|---|---|
| Airport | Campbell River Airport (CYBL) |
Arrival
| Time | 2026-05-08 04:01 |
|---|---|
| Airport | Vancouver International Airport (CYVR) |
| Time | Latitude | Longitude | Altitude | Speed | Heading |
|---|---|---|---|---|---|
| 2026-05-08 02:46 | 49.95230 | -125.26989 | 326 ft | 0 kts | 210° |
| 2026-05-08 03:00 | 49.95229 | -125.26989 | 326 ft | 0 kts | 210° |
| 2026-05-08 03:00 | 49.95220 | -125.26997 | 324 ft | 3 kts | 205° |
| 2026-05-08 03:01 | 49.95203 | -125.27015 | 325 ft | 6 kts | 218° |
| 2026-05-08 03:01 | 49.95169 | -125.27010 | 323 ft | 2 kts | 137° |
| 2026-05-08 03:01 | 49.95134 | -125.26986 | 324 ft | 10 kts | 223° |
| 2026-05-08 03:01 | 49.95157 | -125.27054 | 325 ft | 3 kts | 315° |
| 2026-05-08 03:02 | 49.95179 | -125.27090 | 325 ft | 7 kts | 315° |
| 2026-05-08 03:02 | 49.95228 | -125.27164 | 326 ft | 12 kts | 313° |
| 2026-05-08 03:02 | 49.95293 | -125.27265 | 330 ft | 10 kts | 315° |
| 2026-05-08 03:02 | 49.95323 | -125.27309 | 331 ft | 5 kts | 314° |
| 2026-05-08 03:03 | 49.95371 | -125.27384 | 330 ft | 14 kts | 313° |
| 2026-05-08 03:03 | 49.95435 | -125.27485 | 332 ft | 10 kts | 315° |
| 2026-05-08 03:03 | 49.95495 | -125.27579 | 337 ft | 11 kts | 315° |
| 2026-05-08 03:03 | 49.95537 | -125.27643 | 338 ft | 8 kts | 316° |
| 2026-05-08 03:04 | 49.95585 | -125.27721 | 339 ft | 6 kts | 297° |
| 2026-05-08 03:04 | 49.95586 | -125.27727 | 340 ft | 0 kts | 284° |
| 2026-05-08 03:04 | 49.95584 | -125.27747 | 347 ft | 6 kts | 239° |
| 2026-05-08 03:04 | 49.95549 | -125.27805 | 340 ft | 6 kts | 219° |
| 2026-05-08 03:05 | 49.95522 | -125.27802 | 335 ft | 0 kts | 137° |
| 2026-05-08 03:05 | 49.95429 | -125.27659 | 336 ft | 43 kts | 135° |
| 2026-05-08 03:06 | 49.95118 | -125.27173 | 330 ft | 80 kts | 135° |
| 2026-05-08 03:06 | 49.94676 | -125.26510 | 440 ft | 92 kts | 134° |
| 2026-05-08 03:06 | 49.94165 | -125.25761 | 547 ft | 108 kts | 136° |
| 2026-05-08 03:06 | 49.93600 | -125.24982 | 777 ft | 109 kts | 135° |
| 2026-05-08 03:07 | 49.93081 | -125.24171 | 1078 ft | 103 kts | 139° |
| 2026-05-08 03:07 | 49.92585 | -125.23401 | 1351 ft | 101 kts | 135° |
| 2026-05-08 03:07 | 49.92102 | -125.22596 | 1595 ft | 106 kts | 134° |
| 2026-05-08 03:07 | 49.91583 | -125.21732 | 1829 ft | 110 kts | 133° |
| 2026-05-08 03:08 | 49.91064 | -125.20877 | 2047 ft | 110 kts | 133° |
| 2026-05-08 03:08 | 49.90536 | -125.20005 | 2280 ft | 112 kts | 134° |
| 2026-05-08 03:08 | 49.89991 | -125.19114 | 2506 ft | 115 kts | 135° |
| 2026-05-08 03:08 | 49.89601 | -125.18530 | 2661 ft | 116 kts | 136° |
| 2026-05-08 03:09 | 49.88829 | -125.17345 | 2966 ft | 118 kts | 136° |
| 2026-05-08 03:09 | 49.88255 | -125.16458 | 3194 ft | 118 kts | 135° |
| 2026-05-08 03:09 | 49.87682 | -125.15539 | 3423 ft | 119 kts | 134° |
| 2026-05-08 03:09 | 49.87109 | -125.14615 | 3642 ft | 119 kts | 134° |
| 2026-05-08 03:10 | 49.86529 | -125.13690 | 3869 ft | 120 kts | 134° |
| 2026-05-08 03:10 | 49.85946 | -125.12757 | 4095 ft | 121 kts | 134° |
| 2026-05-08 03:10 | 49.85362 | -125.11819 | 4318 ft | 121 kts | 134° |
| 2026-05-08 03:10 | 49.84963 | -125.11190 | 4475 ft | 121 kts | 134° |
| 2026-05-08 03:11 | 49.84370 | -125.10255 | 4697 ft | 122 kts | 136° |
| 2026-05-08 03:11 | 49.83786 | -125.09331 | 4934 ft | 122 kts | 134° |
| 2026-05-08 03:11 | 49.83186 | -125.08384 | 5161 ft | 121 kts | 135° |
| 2026-05-08 03:11 | 49.82605 | -125.07461 | 5374 ft | 121 kts | 135° |
| 2026-05-08 03:12 | 49.82018 | -125.06528 | 5601 ft | 121 kts | 134° |
| 2026-05-08 03:12 | 49.81434 | -125.05597 | 5829 ft | 120 kts | 134° |
| 2026-05-08 03:12 | 49.80854 | -125.04669 | 6059 ft | 120 kts | 134° |
| 2026-05-08 03:12 | 49.80275 | -125.03749 | 6288 ft | 119 kts | 134° |
| 2026-05-08 03:13 | 49.79704 | -125.02837 | 6516 ft | 118 kts | 134° |
| 2026-05-08 03:13 | 49.79132 | -125.01941 | 6735 ft | 116 kts | 136° |
| 2026-05-08 03:13 | 49.78565 | -125.01062 | 6944 ft | 115 kts | 135° |
| 2026-05-08 03:13 | 49.77975 | -125.00128 | 6996 ft | 130 kts | 135° |
| 2026-05-08 03:14 | 49.77304 | -124.99062 | 6994 ft | 145 kts | 134° |
| 2026-05-08 03:14 | 49.76576 | -124.97894 | 7005 ft | 155 kts | 135° |
| 2026-05-08 03:14 | 49.75803 | -124.96679 | 7008 ft | 161 kts | 134° |
| 2026-05-08 03:14 | 49.75020 | -124.95441 | 7009 ft | 161 kts | 134° |
| 2026-05-08 03:15 | 49.74238 | -124.94204 | 7008 ft | 160 kts | 134° |
| 2026-05-08 03:15 | 49.73461 | -124.92973 | 7009 ft | 160 kts | 134° |
| 2026-05-08 03:15 | 49.72684 | -124.91745 | 7009 ft | 159 kts | 134° |
| 2026-05-08 03:15 | 49.71912 | -124.90526 | 7009 ft | 159 kts | 134° |
| 2026-05-08 03:16 | 49.71240 | -124.89176 | 7002 ft | 159 kts | 113° |
| 2026-05-08 03:16 | 49.70990 | -124.87516 | 7004 ft | 159 kts | 100° |
| 2026-05-08 03:16 | 49.70780 | -124.85842 | 7005 ft | 159 kts | 102° |
| 2026-05-08 03:16 | 49.70564 | -124.84172 | 7006 ft | 159 kts | 101° |
| 2026-05-08 03:17 | 49.70350 | -124.82497 | 7006 ft | 159 kts | 101° |
| 2026-05-08 03:17 | 49.70138 | -124.80823 | 7006 ft | 159 kts | 101° |
| 2026-05-08 03:17 | 49.69924 | -124.79149 | 7006 ft | 159 kts | 101° |
| 2026-05-08 03:17 | 49.69711 | -124.77476 | 7006 ft | 159 kts | 101° |
| 2026-05-08 03:18 | 49.69497 | -124.75802 | 7009 ft | 159 kts | 101° |
| 2026-05-08 03:18 | 49.69283 | -124.74127 | 7010 ft | 159 kts | 101° |
| 2026-05-08 03:18 | 49.69068 | -124.72453 | 7010 ft | 159 kts | 101° |
| 2026-05-08 03:18 | 49.68853 | -124.70776 | 7011 ft | 159 kts | 101° |
| 2026-05-08 03:19 | 49.68638 | -124.69101 | 7009 ft | 159 kts | 101° |
| 2026-05-08 03:19 | 49.68423 | -124.67426 | 7025 ft | 159 kts | 101° |
| 2026-05-08 03:19 | 49.68207 | -124.65750 | 7025 ft | 159 kts | 101° |
| 2026-05-08 03:19 | 49.67992 | -124.64078 | 7025 ft | 159 kts | 101° |
| 2026-05-08 03:20 | 49.67775 | -124.62401 | 7028 ft | 159 kts | 101° |
| 2026-05-08 03:20 | 49.67558 | -124.60723 | 7026 ft | 159 kts | 102° |
| 2026-05-08 03:20 | 49.67342 | -124.59047 | 7026 ft | 159 kts | 101° |
| 2026-05-08 03:20 | 49.67124 | -124.57372 | 7027 ft | 159 kts | 101° |
| 2026-05-08 03:21 | 49.66907 | -124.55694 | 7026 ft | 159 kts | 102° |
| 2026-05-08 03:21 | 49.66689 | -124.54016 | 7025 ft | 159 kts | 102° |
| 2026-05-08 03:21 | 49.66471 | -124.52341 | 7025 ft | 159 kts | 102° |
| 2026-05-08 03:21 | 49.66253 | -124.50665 | 7026 ft | 159 kts | 102° |
| 2026-05-08 03:22 | 49.66035 | -124.48988 | 7025 ft | 159 kts | 102° |
| 2026-05-08 03:22 | 49.65817 | -124.47314 | 7023 ft | 159 kts | 102° |
| 2026-05-08 03:22 | 49.65598 | -124.45646 | 7025 ft | 158 kts | 102° |
| 2026-05-08 03:22 | 49.65384 | -124.44006 | 7026 ft | 158 kts | 102° |
| 2026-05-08 03:23 | 49.65167 | -124.42345 | 7024 ft | 158 kts | 102° |
| 2026-05-08 03:23 | 49.64950 | -124.40692 | 7024 ft | 157 kts | 102° |
| 2026-05-08 03:23 | 49.64735 | -124.39042 | 7024 ft | 156 kts | 103° |
| 2026-05-08 03:23 | 49.64517 | -124.37396 | 7020 ft | 157 kts | 103° |
| 2026-05-08 03:24 | 49.64301 | -124.35750 | 7017 ft | 156 kts | 103° |
| 2026-05-08 03:24 | 49.64085 | -124.34108 | 7015 ft | 156 kts | 103° |
| 2026-05-08 03:24 | 49.63868 | -124.32461 | 7017 ft | 157 kts | 103° |
| 2026-05-08 03:24 | 49.63511 | -124.30896 | 7015 ft | 154 kts | 121° |
| 2026-05-08 03:25 | 49.62972 | -124.29470 | 7020 ft | 154 kts | 120° |
| 2026-05-08 03:25 | 49.62455 | -124.28022 | 7019 ft | 154 kts | 120° |
| 2026-05-08 03:25 | 49.61933 | -124.26572 | 7018 ft | 155 kts | 120° |
| 2026-05-08 03:25 | 49.61412 | -124.25122 | 7019 ft | 155 kts | 120° |
| 2026-05-08 03:26 | 49.60887 | -124.23673 | 7019 ft | 155 kts | 120° |
| 2026-05-08 03:26 | 49.60365 | -124.22227 | 7019 ft | 154 kts | 120° |
| 2026-05-08 03:26 | 49.59844 | -124.20784 | 7019 ft | 154 kts | 120° |
| 2026-05-08 03:26 | 49.59325 | -124.19345 | 7015 ft | 154 kts | 120° |
| 2026-05-08 03:27 | 49.58804 | -124.17908 | 7014 ft | 154 kts | 120° |
| 2026-05-08 03:27 | 49.58282 | -124.16465 | 7012 ft | 154 kts | 120° |
| 2026-05-08 03:27 | 49.57760 | -124.15024 | 7014 ft | 154 kts | 120° |
| 2026-05-08 03:27 | 49.57236 | -124.13579 | 7011 ft | 155 kts | 120° |
| 2026-05-08 03:28 | 49.56710 | -124.12127 | 7012 ft | 155 kts | 120° |
| 2026-05-08 03:28 | 49.56183 | -124.10676 | 7011 ft | 155 kts | 120° |
| 2026-05-08 03:28 | 49.55658 | -124.09229 | 7014 ft | 154 kts | 120° |
| 2026-05-08 03:28 | 49.55135 | -124.07790 | 7012 ft | 154 kts | 120° |
| 2026-05-08 03:29 | 49.54616 | -124.06356 | 7013 ft | 153 kts | 120° |
| 2026-05-08 03:29 | 49.54095 | -124.04924 | 7012 ft | 153 kts | 120° |
| 2026-05-08 03:29 | 49.53574 | -124.03492 | 7006 ft | 153 kts | 120° |
| 2026-05-08 03:29 | 49.53054 | -124.02064 | 7008 ft | 153 kts | 120° |
| 2026-05-08 03:30 | 49.52016 | -123.99214 | 7007 ft | 153 kts | 120° |
| 2026-05-08 03:30 | 49.50973 | -123.96369 | 7004 ft | 152 kts | 123° |
| 2026-05-08 03:31 | 49.49108 | -123.95650 | 7016 ft | 155 kts | 207° |
| 2026-05-08 03:31 | 49.48521 | -123.98615 | 7019 ft | 164 kts | 294° |
| 2026-05-08 03:32 | 49.49065 | -124.00163 | 7007 ft | 165 kts | 298° |
| 2026-05-08 03:32 | 49.49620 | -124.01712 | 7008 ft | 165 kts | 298° |
| 2026-05-08 03:32 | 49.50175 | -124.03255 | 7009 ft | 165 kts | 298° |
| 2026-05-08 03:32 | 49.50733 | -124.04798 | 7008 ft | 165 kts | 301° |
| 2026-05-08 03:33 | 49.51639 | -124.05805 | 7015 ft | 164 kts | 351° |
| 2026-05-08 03:33 | 49.52703 | -124.05433 | 7010 ft | 160 kts | 41° |
| 2026-05-08 03:33 | 49.53308 | -124.04058 | 7014 ft | 155 kts | 77° |
| 2026-05-08 03:33 | 49.53250 | -124.02455 | 7010 ft | 152 kts | 114° |
| 2026-05-08 03:34 | 49.52712 | -124.01062 | 7008 ft | 152 kts | 123° |
| 2026-05-08 03:34 | 49.52174 | -123.99670 | 7010 ft | 151 kts | 121° |
| 2026-05-08 03:34 | 49.51658 | -123.98256 | 7009 ft | 152 kts | 120° |
| 2026-05-08 03:34 | 49.51150 | -123.96840 | 7010 ft | 151 kts | 120° |
| 2026-05-08 03:35 | 49.50483 | -123.95636 | 7013 ft | 150 kts | 152° |
| 2026-05-08 03:35 | 49.49463 | -123.95422 | 7013 ft | 153 kts | 192° |
| 2026-05-08 03:35 | 49.48595 | -123.96343 | 7012 ft | 158 kts | 235° |
| 2026-05-08 03:35 | 49.48359 | -123.97868 | 7008 ft | 162 kts | 277° |
| 2026-05-08 03:36 | 49.48804 | -123.99458 | 7009 ft | 163 kts | 299° |
| 2026-05-08 03:36 | 49.49362 | -124.00982 | 7010 ft | 164 kts | 298° |
| 2026-05-08 03:36 | 49.49915 | -124.02522 | 7011 ft | 164 kts | 297° |
| 2026-05-08 03:36 | 49.50466 | -124.04065 | 7010 ft | 165 kts | 298° |
| 2026-05-08 03:37 | 49.51229 | -124.05350 | 7008 ft | 166 kts | 335° |
| 2026-05-08 03:37 | 49.52338 | -124.05443 | 7008 ft | 162 kts | 23° |
| 2026-05-08 03:37 | 49.53127 | -124.04307 | 7008 ft | 156 kts | 68° |
| 2026-05-08 03:37 | 49.53225 | -124.02708 | 7012 ft | 151 kts | 108° |
| 2026-05-08 03:38 | 49.52751 | -124.01269 | 7011 ft | 152 kts | 121° |
| 2026-05-08 03:38 | 49.52232 | -123.99853 | 7012 ft | 152 kts | 120° |
| 2026-05-08 03:38 | 49.51718 | -123.98427 | 7008 ft | 152 kts | 120° |
| 2026-05-08 03:38 | 49.51197 | -123.97014 | 7010 ft | 151 kts | 124° |
| 2026-05-08 03:39 | 49.50489 | -123.95834 | 7010 ft | 151 kts | 142° |
| 2026-05-08 03:39 | 49.49776 | -123.94675 | 7009 ft | 151 kts | 122° |
| 2026-05-08 03:39 | 49.49253 | -123.93277 | 7011 ft | 151 kts | 122° |
| 2026-05-08 03:39 | 49.48701 | -123.91903 | 7011 ft | 152 kts | 123° |
| 2026-05-08 03:40 | 49.48154 | -123.90516 | 7009 ft | 152 kts | 122° |
| 2026-05-08 03:40 | 49.47607 | -123.89121 | 7009 ft | 153 kts | 122° |
| 2026-05-08 03:40 | 49.47061 | -123.87723 | 7010 ft | 154 kts | 122° |
| 2026-05-08 03:40 | 49.46513 | -123.86323 | 7008 ft | 154 kts | 122° |
| 2026-05-08 03:41 | 49.45960 | -123.84909 | 7007 ft | 155 kts | 122° |
| 2026-05-08 03:41 | 49.45407 | -123.83500 | 7009 ft | 153 kts | 122° |
| 2026-05-08 03:41 | 49.44859 | -123.82097 | 7009 ft | 153 kts | 122° |
| 2026-05-08 03:41 | 49.44312 | -123.80698 | 7007 ft | 153 kts | 122° |
| 2026-05-08 03:42 | 49.43763 | -123.79296 | 7006 ft | 153 kts | 122° |
| 2026-05-08 03:42 | 49.43212 | -123.77894 | 7004 ft | 153 kts | 122° |
| 2026-05-08 03:42 | 49.42664 | -123.76495 | 7005 ft | 153 kts | 122° |
| 2026-05-08 03:42 | 49.42116 | -123.75102 | 7011 ft | 152 kts | 122° |
| 2026-05-08 03:43 | 49.41569 | -123.73709 | 7010 ft | 152 kts | 122° |
| 2026-05-08 03:43 | 49.41022 | -123.72318 | 7011 ft | 152 kts | 122° |
| 2026-05-08 03:43 | 49.40477 | -123.70927 | 7010 ft | 153 kts | 122° |
| 2026-05-08 03:43 | 49.39926 | -123.69531 | 7011 ft | 153 kts | 122° |
| 2026-05-08 03:44 | 49.39375 | -123.68129 | 7007 ft | 154 kts | 122° |
| 2026-05-08 03:44 | 49.38821 | -123.66721 | 7008 ft | 154 kts | 122° |
| 2026-05-08 03:44 | 49.38267 | -123.65318 | 7010 ft | 153 kts | 122° |
| 2026-05-08 03:44 | 49.37721 | -123.63933 | 7007 ft | 154 kts | 122° |
| 2026-05-08 03:45 | 49.37167 | -123.62528 | 7014 ft | 154 kts | 122° |
| 2026-05-08 03:45 | 49.36613 | -123.61126 | 7014 ft | 154 kts | 123° |
| 2026-05-08 03:45 | 49.36061 | -123.59728 | 7019 ft | 153 kts | 122° |
| 2026-05-08 03:45 | 49.35510 | -123.58332 | 7019 ft | 153 kts | 122° |
| 2026-05-08 03:46 | 49.34962 | -123.56941 | 7016 ft | 152 kts | 121° |
| 2026-05-08 03:46 | 49.34670 | -123.55390 | 7019 ft | 153 kts | 98° |
| 2026-05-08 03:46 | 49.34523 | -123.53768 | 7020 ft | 154 kts | 102° |
| 2026-05-08 03:46 | 49.34345 | -123.52150 | 7019 ft | 154 kts | 101° |
| 2026-05-08 03:47 | 49.34179 | -123.50555 | 7014 ft | 148 kts | 101° |
| 2026-05-08 03:47 | 49.34014 | -123.48966 | 6801 ft | 152 kts | 101° |
| 2026-05-08 03:47 | 49.33845 | -123.47351 | 6602 ft | 154 kts | 101° |
| 2026-05-08 03:47 | 49.33676 | -123.45730 | 6404 ft | 154 kts | 101° |
| 2026-05-08 03:48 | 49.33507 | -123.44107 | 6197 ft | 154 kts | 100° |
| 2026-05-08 03:48 | 49.33338 | -123.42480 | 6026 ft | 153 kts | 101° |
| 2026-05-08 03:48 | 49.33178 | -123.40926 | 6026 ft | 143 kts | 100° |
| 2026-05-08 03:48 | 49.33026 | -123.39445 | 6027 ft | 138 kts | 100° |
| 2026-05-08 03:49 | 49.32876 | -123.38012 | 6021 ft | 135 kts | 100° |
| 2026-05-08 03:49 | 49.32729 | -123.36608 | 6015 ft | 132 kts | 100° |
| 2026-05-08 03:49 | 49.32588 | -123.35271 | 6013 ft | 130 kts | 101° |
| 2026-05-08 03:49 | 49.32442 | -123.33870 | 6012 ft | 130 kts | 101° |
| 2026-05-08 03:50 | 49.32298 | -123.32507 | 6017 ft | 129 kts | 101° |
| 2026-05-08 03:50 | 49.32155 | -123.31148 | 6014 ft | 129 kts | 100° |
| 2026-05-08 03:50 | 49.32012 | -123.29791 | 6019 ft | 129 kts | 100° |
| 2026-05-08 03:50 | 49.31868 | -123.28431 | 6023 ft | 132 kts | 100° |
| 2026-05-08 03:51 | 49.31720 | -123.27027 | 6031 ft | 138 kts | 100° |
| 2026-05-08 03:51 | 49.31557 | -123.25522 | 6034 ft | 144 kts | 101° |
| 2026-05-08 03:51 | 49.31392 | -123.23990 | 6033 ft | 147 kts | 101° |
| 2026-05-08 03:51 | 49.31227 | -123.22447 | 6030 ft | 150 kts | 101° |
| 2026-05-08 03:52 | 49.31058 | -123.20864 | 6027 ft | 151 kts | 100° |
| 2026-05-08 03:52 | 49.30886 | -123.19247 | 6031 ft | 152 kts | 100° |
| 2026-05-08 03:52 | 49.30718 | -123.17667 | 6032 ft | 153 kts | 101° |
| 2026-05-08 03:52 | 49.30546 | -123.16064 | 6032 ft | 153 kts | 100° |
| 2026-05-08 03:53 | 49.30377 | -123.14456 | 6026 ft | 154 kts | 101° |
| 2026-05-08 03:53 | 49.30203 | -123.12841 | 6028 ft | 153 kts | 102° |
| 2026-05-08 03:53 | 49.30029 | -123.11229 | 6028 ft | 154 kts | 102° |
| 2026-05-08 03:53 | 49.29855 | -123.09614 | 6028 ft | 154 kts | 101° |
| 2026-05-08 03:54 | 49.29681 | -123.07996 | 6028 ft | 154 kts | 101° |
| 2026-05-08 03:54 | 49.29506 | -123.06375 | 6029 ft | 154 kts | 101° |
| 2026-05-08 03:54 | 49.29310 | -123.04762 | 6024 ft | 153 kts | 110° |
| 2026-05-08 03:54 | 49.28617 | -123.03591 | 6009 ft | 146 kts | 156° |
| 2026-05-08 03:55 | 49.27589 | -123.03412 | 5659 ft | 152 kts | 181° |
| 2026-05-08 03:55 | 49.26554 | -123.03475 | 5321 ft | 150 kts | 181° |
| 2026-05-08 03:55 | 49.25520 | -123.03526 | 4988 ft | 148 kts | 181° |
| 2026-05-08 03:55 | 49.24497 | -123.03578 | 4650 ft | 147 kts | 181° |
| 2026-05-08 03:56 | 49.23483 | -123.03630 | 4313 ft | 144 kts | 181° |
| 2026-05-08 03:56 | 49.22537 | -123.03683 | 3993 ft | 130 kts | 181° |
| 2026-05-08 03:56 | 49.21654 | -123.03735 | 3643 ft | 125 kts | 180° |
| 2026-05-08 03:56 | 49.20798 | -123.03778 | 3308 ft | 122 kts | 179° |
| 2026-05-08 03:57 | 49.19961 | -123.03833 | 2976 ft | 119 kts | 181° |
| 2026-05-08 03:57 | 49.19147 | -123.03900 | 2655 ft | 116 kts | 182° |
| 2026-05-08 03:57 | 49.18355 | -123.03986 | 2353 ft | 113 kts | 189° |
| 2026-05-08 03:57 | 49.17652 | -123.04547 | 1923 ft | 119 kts | 223° |
| 2026-05-08 03:58 | 49.17297 | -123.05678 | 1523 ft | 123 kts | 260° |
| 2026-05-08 03:58 | 49.17399 | -123.06943 | 1287 ft | 108 kts | 277° |
| 2026-05-08 03:58 | 49.17536 | -123.07945 | 1167 ft | 87 kts | 277° |
| 2026-05-08 03:58 | 49.17641 | -123.08788 | 1019 ft | 78 kts | 275° |
| 2026-05-08 03:59 | 49.17725 | -123.09624 | 922 ft | 83 kts | 273° |
| 2026-05-08 03:59 | 49.17827 | -123.10493 | 877 ft | 83 kts | 278° |
| 2026-05-08 03:59 | 49.17943 | -123.11357 | 815 ft | 83 kts | 276° |
| 2026-05-08 03:59 | 49.18046 | -123.12246 | 734 ft | 87 kts | 276° |
| 2026-05-08 04:00 | 49.18143 | -123.13174 | 598 ft | 89 kts | 277° |
| 2026-05-08 04:00 | 49.18250 | -123.14094 | 448 ft | 87 kts | 276° |
| 2026-05-08 04:00 | 49.18353 | -123.15013 | 277 ft | 86 kts | 276° |
| 2026-05-08 04:00 | 49.18447 | -123.15863 | 110 ft | 77 kts | 276° |
| 2026-05-08 04:01 | 49.18532 | -123.16597 | 25 ft | 62 kts | 275° |
| 2026-05-08 04:01 | 49.18593 | -123.17134 | 25 ft | 35 kts | 280° |
| 2026-05-08 04:01 | 49.18629 | -123.17448 | 23 ft | 28 kts | 281° |
| 2026-05-08 04:01 | 49.18693 | -123.17558 | 25 ft | 13 kts | 68° |
| 2026-05-08 04:02 | 49.18718 | -123.17445 | 23 ft | 15 kts | 71° |
| 2026-05-08 04:02 | 49.18761 | -123.17294 | 23 ft | 14 kts | 45° |
| 2026-05-08 04:02 | 49.18813 | -123.17193 | 23 ft | 19 kts | 99° |
| 2026-05-08 04:02 | 49.18785 | -123.16955 | 23 ft | 19 kts | 99° |
| 2026-05-08 04:03 | 49.18759 | -123.16729 | 24 ft | 24 kts | 98° |
| 2026-05-08 04:03 | 49.18714 | -123.16340 | 25 ft | 14 kts | 106° |
| 2026-05-08 04:03 | 49.18666 | -123.16246 | 24 ft | 13 kts | 136° |
| 2026-05-08 04:04 | 49.18632 | -123.16130 | 23 ft | 16 kts | 99° |
| 2026-05-08 04:04 | 49.18617 | -123.15999 | 26 ft | 12 kts | 99° |
| 2026-05-08 04:04 | 49.18599 | -123.15844 | 23 ft | 13 kts | 99° |
| 2026-05-08 04:04 | 49.18609 | -123.15708 | 23 ft | 15 kts | 80° |
| 2026-05-08 04:05 | 49.18647 | -123.15595 | 23 ft | 10 kts | 34° |
| 2026-05-08 04:05 | 49.18701 | -123.15611 | 23 ft | 8 kts | 336° |
| 2026-05-08 04:05 | 49.18716 | -123.15604 | 23 ft | 0 kts | 177° |